sensor_id;sensor_type;location;lat;lon;timestamp;P1;durP1;ratioP1;P2;durP2;ratioP2
54871;SDS011;43914;57.680;11.982;2023-07-13T00:00:37;13.50;;;2.50;;
54871;SDS011;43914;57.680;11.982;2023-07-13T00:03:03;10.90;;;2.30;;
54871;SDS011;43914;57.680;11.982;2023-07-13T00:05:29;8.40;;;2.20;;
54871;SDS011;43914;57.680;11.982;2023-07-13T00:07:56;10.70;;;2.10;;
54871;SDS011;43914;57.680;11.982;2023-07-13T00:10:21;9.60;;;2.40;;
54871;SDS011;43914;57.680;11.982;2023-07-13T00:12:47;10.90;;;2.30;;
54871;SDS011;43914;57.680;11.982;2023-07-13T00:15:18;11.60;;;2.20;;
54871;SDS011;43914;57.680;11.982;2023-07-13T00:17:54;19.60;;;3.70;;
54871;SDS011;43914;57.680;11.982;2023-07-13T00:20:21;12.20;;;2.30;;
54871;SDS011;43914;57.680;11.982;2023-07-13T00:22:49;14.10;;;2.70;;
54871;SDS011;43914;57.680;11.982;2023-07-13T00:25:18;13.10;;;2.60;;
54871;SDS011;43914;57.680;11.982;2023-07-13T00:27:46;9.70;;;1.90;;
54871;SDS011;43914;57.680;11.982;2023-07-13T00:30:13;8.30;;;2.30;;
54871;SDS011;43914;57.680;11.982;2023-07-13T00:32:39;11.50;;;2.50;;
54871;SDS011;43914;57.680;11.982;2023-07-13T00:35:05;12.30;;;2.60;;
54871;SDS011;43914;57.680;11.982;2023-07-13T00:37:31;12.00;;;2.60;;
54871;SDS011;43914;57.680;11.982;2023-07-13T00:39:56;14.20;;;2.50;;
54871;SDS011;43914;57.680;11.982;2023-07-13T00:42:22;11.50;;;2.40;;
54871;SDS011;43914;57.680;11.982;2023-07-13T00:45:01;12.70;;;2.60;;
54871;SDS011;43914;57.680;11.982;2023-07-13T00:47:31;10.40;;;2.50;;
54871;SDS011;43914;57.680;11.982;2023-07-13T00:49:57;14.20;;;2.90;;
54871;SDS011;43914;57.680;11.982;2023-07-13T00:52:23;14.20;;;2.50;;
54871;SDS011;43914;57.680;11.982;2023-07-13T00:54:49;9.70;;;2.40;;
54871;SDS011;43914;57.680;11.982;2023-07-13T00:57:16;10.00;;;2.70;;
54871;SDS011;43914;57.680;11.982;2023-07-13T00:59:46;12.00;;;2.40;;
54871;SDS011;43914;57.680;11.982;2023-07-13T01:02:20;13.60;;;2.50;;
54871;SDS011;43914;57.680;11.982;2023-07-13T01:04:47;11.30;;;2.70;;
54871;SDS011;43914;57.680;11.982;2023-07-13T01:07:13;13.30;;;2.40;;
54871;SDS011;43914;57.680;11.982;2023-07-13T01:09:38;15.10;;;2.80;;
54871;SDS011;43914;57.680;11.982;2023-07-13T01:12:04;14.50;;;2.70;;
54871;SDS011;43914;57.680;11.982;2023-07-13T01:14:32;11.30;;;2.90;;
54871;SDS011;43914;57.680;11.982;2023-07-13T01:16:57;14.80;;;2.70;;
54871;SDS011;43914;57.680;11.982;2023-07-13T01:22:08;10.40;;;2.30;;
54871;SDS011;43914;57.680;11.982;2023-07-13T01:24:40;13.40;;;2.40;;
54871;SDS011;43914;57.680;11.982;2023-07-13T01:27:09;15.90;;;3.30;;
54871;SDS011;43914;57.680;11.982;2023-07-13T01:29:38;14.80;;;2.90;;
54871;SDS011;43914;57.680;11.982;2023-07-13T01:32:11;12.30;;;2.60;;
54871;SDS011;43914;57.680;11.982;2023-07-13T01:34:38;12.30;;;3.00;;
54871;SDS011;43914;57.680;11.982;2023-07-13T01:37:07;9.90;;;2.30;;
54871;SDS011;43914;57.680;11.982;2023-07-13T01:39:34;15.30;;;3.00;;
54871;SDS011;43914;57.680;11.982;2023-07-13T01:42:00;16.90;;;3.00;;
54871;SDS011;43914;57.680;11.982;2023-07-13T01:44:26;16.70;;;2.90;;
54871;SDS011;43914;57.680;11.982;2023-07-13T01:46:52;12.50;;;3.10;;
54871;SDS011;43914;57.680;11.982;2023-07-13T01:49:17;14.70;;;3.10;;
54871;SDS011;43914;57.680;11.982;2023-07-13T01:51:43;11.60;;;3.00;;
54871;SDS011;43914;57.680;11.982;2023-07-13T01:54:08;13.90;;;3.10;;
54871;SDS011;43914;57.680;11.982;2023-07-13T01:56:34;13.10;;;2.90;;
54871;SDS011;43914;57.680;11.982;2023-07-13T01:58:59;16.10;;;2.90;;
54871;SDS011;43914;57.680;11.982;2023-07-13T02:01:25;16.10;;;3.50;;
54871;SDS011;43914;57.680;11.982;2023-07-13T02:03:50;9.70;;;2.70;;
54871;SDS011;43914;57.680;11.982;2023-07-13T02:06:16;12.30;;;3.00;;
54871;SDS011;43914;57.680;11.982;2023-07-13T02:08:42;10.40;;;3.30;;
54871;SDS011;43914;57.680;11.982;2023-07-13T02:11:08;17.10;;;3.90;;
54871;SDS011;43914;57.680;11.982;2023-07-13T02:13:34;12.50;;;3.50;;
54871;SDS011;43914;57.680;11.982;2023-07-13T02:16:00;17.60;;;4.20;;
54871;SDS011;43914;57.680;11.982;2023-07-13T02:18:26;15.20;;;2.90;;
54871;SDS011;43914;57.680;11.982;2023-07-13T02:20:51;17.50;;;3.10;;
54871;SDS011;43914;57.680;11.982;2023-07-13T02:23:17;11.30;;;2.80;;
54871;SDS011;43914;57.680;11.982;2023-07-13T02:25:43;16.30;;;4.30;;
54871;SDS011;43914;57.680;11.982;2023-07-13T02:28:08;13.40;;;3.20;;
54871;SDS011;43914;57.680;11.982;2023-07-13T02:30:34;17.40;;;3.40;;
54871;SDS011;43914;57.680;11.982;2023-07-13T02:33:00;11.50;;;3.00;;
54871;SDS011;43914;57.680;11.982;2023-07-13T02:35:26;12.80;;;3.10;;
54871;SDS011;43914;57.680;11.982;2023-07-13T02:37:51;12.20;;;3.00;;
54871;SDS011;43914;57.680;11.982;2023-07-13T02:40:17;11.30;;;3.00;;
54871;SDS011;43914;57.680;11.982;2023-07-13T02:42:43;12.70;;;3.50;;
54871;SDS011;43914;57.680;11.982;2023-07-13T02:45:08;18.80;;;3.20;;
54871;SDS011;43914;57.680;11.982;2023-07-13T02:47:36;15.90;;;3.30;;
54871;SDS011;43914;57.680;11.982;2023-07-13T02:50:02;13.90;;;3.00;;
54871;SDS011;43914;57.680;11.982;2023-07-13T02:52:28;18.90;;;3.80;;
54871;SDS011;43914;57.680;11.982;2023-07-13T02:54:54;14.20;;;3.20;;
54871;SDS011;43914;57.680;11.982;2023-07-13T02:57:19;13.80;;;3.50;;
54871;SDS011;43914;57.680;11.982;2023-07-13T02:59:45;13.20;;;3.40;;
54871;SDS011;43914;57.680;11.982;2023-07-13T03:02:11;10.60;;;3.00;;
54871;SDS011;43914;57.680;11.982;2023-07-13T03:04:36;10.20;;;3.80;;
54871;SDS011;43914;57.680;11.982;2023-07-13T03:07:03;14.30;;;3.60;;
54871;SDS011;43914;57.680;11.982;2023-07-13T03:09:29;15.90;;;3.80;;
54871;SDS011;43914;57.680;11.982;2023-07-13T03:11:56;13.00;;;3.70;;
54871;SDS011;43914;57.680;11.982;2023-07-13T03:14:22;16.10;;;3.90;;
54871;SDS011;43914;57.680;11.982;2023-07-13T03:16:48;11.10;;;3.30;;
54871;SDS011;43914;57.680;11.982;2023-07-13T03:19:14;14.10;;;3.60;;
54871;SDS011;43914;57.680;11.982;2023-07-13T03:21:40;13.20;;;3.40;;
54871;SDS011;43914;57.680;11.982;2023-07-13T03:24:05;17.50;;;3.60;;
54871;SDS011;43914;57.680;11.982;2023-07-13T03:26:32;14.00;;;3.70;;
54871;SDS011;43914;57.680;11.982;2023-07-13T03:28:57;12.60;;;3.10;;
54871;SDS011;43914;57.680;11.982;2023-07-13T03:31:25;11.80;;;3.60;;
54871;SDS011;43914;57.680;11.982;2023-07-13T03:33:53;15.30;;;4.20;;
54871;SDS011;43914;57.680;11.982;2023-07-13T03:36:20;12.90;;;3.30;;
54871;SDS011;43914;57.680;11.982;2023-07-13T03:38:51;16.40;;;4.00;;
54871;SDS011;43914;57.680;11.982;2023-07-13T03:41:19;16.80;;;3.60;;
54871;SDS011;43914;57.680;11.982;2023-07-13T03:43:45;11.30;;;3.80;;
54871;SDS011;43914;57.680;11.982;2023-07-13T03:46:13;14.50;;;3.30;;
54871;SDS011;43914;57.680;11.982;2023-07-13T03:48:40;12.10;;;3.10;;
54871;SDS011;43914;57.680;11.982;2023-07-13T03:51:08;17.80;;;4.20;;
54871;SDS011;43914;57.680;11.982;2023-07-13T03:53:38;16.90;;;3.80;;
54871;SDS011;43914;57.680;11.982;2023-07-13T03:56:06;20.80;;;3.80;;
54871;SDS011;43914;57.680;11.982;2023-07-13T03:58:33;22.10;;;3.50;;
54871;SDS011;43914;57.680;11.982;2023-07-13T04:01:01;11.80;;;3.00;;
54871;SDS011;43914;57.680;11.982;2023-07-13T04:03:30;15.00;;;2.90;;
54871;SDS011;43914;57.680;11.982;2023-07-13T04:05:58;11.70;;;3.30;;
54871;SDS011;43914;57.680;11.982;2023-07-13T04:08:28;13.20;;;3.00;;
54871;SDS011;43914;57.680;11.982;2023-07-13T04:10:56;10.60;;;2.70;;
54871;SDS011;43914;57.680;11.982;2023-07-13T04:13:22;12.20;;;2.80;;
54871;SDS011;43914;57.680;11.982;2023-07-13T04:15:50;11.70;;;3.20;;
54871;SDS011;43914;57.680;11.982;2023-07-13T04:18:16;11.70;;;3.00;;
54871;SDS011;43914;57.680;11.982;2023-07-13T04:20:42;18.90;;;2.80;;
54871;SDS011;43914;57.680;11.982;2023-07-13T04:23:08;13.60;;;3.10;;
54871;SDS011;43914;57.680;11.982;2023-07-13T04:25:34;13.50;;;2.70;;
54871;SDS011;43914;57.680;11.982;2023-07-13T04:27:59;11.60;;;2.60;;
54871;SDS011;43914;57.680;11.982;2023-07-13T04:30:25;13.70;;;3.80;;
54871;SDS011;43914;57.680;11.982;2023-07-13T04:32:51;11.00;;;2.80;;
54871;SDS011;43914;57.680;11.982;2023-07-13T04:35:19;13.80;;;2.80;;
54871;SDS011;43914;57.680;11.982;2023-07-13T04:37:46;16.60;;;3.00;;
54871;SDS011;43914;57.680;11.982;2023-07-13T04:40:15;14.10;;;2.80;;
54871;SDS011;43914;57.680;11.982;2023-07-13T04:42:42;12.50;;;3.10;;
54871;SDS011;43914;57.680;11.982;2023-07-13T04:45:09;14.60;;;2.70;;
54871;SDS011;43914;57.680;11.982;2023-07-13T04:47:34;12.70;;;3.10;;
54871;SDS011;43914;57.680;11.982;2023-07-13T04:50:00;14.50;;;2.60;;
54871;SDS011;43914;57.680;11.982;2023-07-13T04:52:26;14.60;;;2.80;;
54871;SDS011;43914;57.680;11.982;2023-07-13T04:54:52;12.50;;;2.80;;
54871;SDS011;43914;57.680;11.982;2023-07-13T04:57:17;11.20;;;2.90;;
54871;SDS011;43914;57.680;11.982;2023-07-13T04:59:43;12.70;;;2.30;;
54871;SDS011;43914;57.680;11.982;2023-07-13T05:02:08;14.80;;;2.70;;
54871;SDS011;43914;57.680;11.982;2023-07-13T05:04:34;11.20;;;2.60;;
54871;SDS011;43914;57.680;11.982;2023-07-13T05:06:59;11.80;;;2.50;;
54871;SDS011;43914;57.680;11.982;2023-07-13T05:09:25;13.60;;;2.90;;
54871;SDS011;43914;57.680;11.982;2023-07-13T05:11:50;11.60;;;2.60;;
54871;SDS011;43914;57.680;11.982;2023-07-13T05:14:16;14.20;;;2.80;;
54871;SDS011;43914;57.680;11.982;2023-07-13T05:16:42;12.20;;;2.80;;
54871;SDS011;43914;57.680;11.982;2023-07-13T05:19:08;10.50;;;2.50;;
54871;SDS011;43914;57.680;11.982;2023-07-13T05:21:34;12.30;;;2.70;;
54871;SDS011;43914;57.680;11.982;2023-07-13T05:24:00;11.80;;;2.90;;
54871;SDS011;43914;57.680;11.982;2023-07-13T05:26:25;13.40;;;2.70;;
54871;SDS011;43914;57.680;11.982;2023-07-13T05:28:51;11.80;;;2.70;;
54871;SDS011;43914;57.680;11.982;2023-07-13T05:31:16;14.30;;;2.80;;
54871;SDS011;43914;57.680;11.982;2023-07-13T05:33:42;15.00;;;2.70;;
54871;SDS011;43914;57.680;11.982;2023-07-13T05:36:07;12.60;;;2.20;;
54871;SDS011;43914;57.680;11.982;2023-07-13T05:38:34;12.50;;;2.50;;
54871;SDS011;43914;57.680;11.982;2023-07-13T05:40:59;11.70;;;2.30;;
54871;SDS011;43914;57.680;11.982;2023-07-13T05:43:25;14.90;;;2.60;;
54871;SDS011;43914;57.680;11.982;2023-07-13T05:45:52;15.90;;;3.70;;
54871;SDS011;43914;57.680;11.982;2023-07-13T05:48:19;11.10;;;2.30;;
54871;SDS011;43914;57.680;11.982;2023-07-13T05:50:45;8.50;;;2.00;;
54871;SDS011;43914;57.680;11.982;2023-07-13T05:53:11;11.50;;;2.60;;
54871;SDS011;43914;57.680;11.982;2023-07-13T05:55:40;10.00;;;2.50;;
54871;SDS011;43914;57.680;11.982;2023-07-13T05:58:07;12.40;;;2.40;;
54871;SDS011;43914;57.680;11.982;2023-07-13T06:00:33;12.20;;;3.00;;
54871;SDS011;43914;57.680;11.982;2023-07-13T06:02:58;10.50;;;2.70;;
54871;SDS011;43914;57.680;11.982;2023-07-13T06:05:24;11.50;;;2.90;;
54871;SDS011;43914;57.680;11.982;2023-07-13T06:07:50;14.20;;;3.10;;
54871;SDS011;43914;57.680;11.982;2023-07-13T06:10:15;17.00;;;3.00;;
54871;SDS011;43914;57.680;11.982;2023-07-13T06:12:41;15.80;;;3.40;;
54871;SDS011;43914;57.680;11.982;2023-07-13T06:15:06;12.50;;;3.10;;
54871;SDS011;43914;57.680;11.982;2023-07-13T06:17:33;13.40;;;2.80;;
54871;SDS011;43914;57.680;11.982;2023-07-13T06:19:58;15.70;;;2.80;;
54871;SDS011;43914;57.680;11.982;2023-07-13T06:22:23;11.80;;;3.10;;
54871;SDS011;43914;57.680;11.982;2023-07-13T06:24:49;10.10;;;2.30;;
54871;SDS011;43914;57.680;11.982;2023-07-13T06:27:14;15.80;;;2.20;;
54871;SDS011;43914;57.680;11.982;2023-07-13T06:29:41;11.30;;;2.30;;
54871;SDS011;43914;57.680;11.982;2023-07-13T06:32:10;14.00;;;2.70;;
54871;SDS011;43914;57.680;11.982;2023-07-13T06:34:36;12.50;;;2.30;;
54871;SDS011;43914;57.680;11.982;2023-07-13T06:37:01;15.30;;;2.80;;
54871;SDS011;43914;57.680;11.982;2023-07-13T06:39:27;13.60;;;2.50;;
54871;SDS011;43914;57.680;11.982;2023-07-13T06:41:52;11.00;;;2.20;;
54871;SDS011;43914;57.680;11.982;2023-07-13T06:44:18;10.70;;;2.40;;
54871;SDS011;43914;57.680;11.982;2023-07-13T06:46:43;11.50;;;2.40;;
54871;SDS011;43914;57.680;11.982;2023-07-13T06:49:09;10.50;;;2.50;;
54871;SDS011;43914;57.680;11.982;2023-07-13T06:51:35;13.40;;;2.60;;
54871;SDS011;43914;57.680;11.982;2023-07-13T06:54:00;12.10;;;3.10;;
54871;SDS011;43914;57.680;11.982;2023-07-13T06:56:26;13.30;;;2.70;;
54871;SDS011;43914;57.680;11.982;2023-07-13T06:58:51;10.20;;;2.50;;
54871;SDS011;43914;57.680;11.982;2023-07-13T07:01:17;12.00;;;2.60;;
54871;SDS011;43914;57.680;11.982;2023-07-13T07:03:42;13.00;;;2.60;;
54871;SDS011;43914;57.680;11.982;2023-07-13T07:06:15;12.60;;;2.50;;
54871;SDS011;43914;57.680;11.982;2023-07-13T07:08:42;8.80;;;2.40;;
54871;SDS011;43914;57.680;11.982;2023-07-13T07:11:14;11.30;;;2.50;;
54871;SDS011;43914;57.680;11.982;2023-07-13T07:13:41;14.40;;;2.40;;
54871;SDS011;43914;57.680;11.982;2023-07-13T07:16:07;10.40;;;2.30;;
54871;SDS011;43914;57.680;11.982;2023-07-13T07:18:34;11.80;;;2.50;;
54871;SDS011;43914;57.680;11.982;2023-07-13T07:21:00;10.30;;;2.50;;
54871;SDS011;43914;57.680;11.982;2023-07-13T07:23:25;10.40;;;2.60;;
54871;SDS011;43914;57.680;11.982;2023-07-13T07:25:51;10.70;;;2.50;;
54871;SDS011;43914;57.680;11.982;2023-07-13T07:28:17;12.70;;;2.20;;
54871;SDS011;43914;57.680;11.982;2023-07-13T07:30:46;8.30;;;2.40;;
54871;SDS011;43914;57.680;11.982;2023-07-13T07:33:13;10.20;;;2.60;;
54871;SDS011;43914;57.680;11.982;2023-07-13T07:35:39;10.30;;;2.60;;
54871;SDS011;43914;57.680;11.982;2023-07-13T07:38:04;11.80;;;2.50;;
54871;SDS011;43914;57.680;11.982;2023-07-13T07:40:30;12.90;;;2.70;;
54871;SDS011;43914;57.680;11.982;2023-07-13T07:42:56;10.00;;;2.80;;
54871;SDS011;43914;57.680;11.982;2023-07-13T07:45:22;11.00;;;2.60;;
54871;SDS011;43914;57.680;11.982;2023-07-13T07:47:48;11.30;;;2.20;;
54871;SDS011;43914;57.680;11.982;2023-07-13T07:50:15;9.60;;;2.40;;
54871;SDS011;43914;57.680;11.982;2023-07-13T07:52:41;10.20;;;1.90;;
54871;SDS011;43914;57.680;11.982;2023-07-13T07:55:07;5.90;;;1.40;;
54871;SDS011;43914;57.680;11.982;2023-07-13T07:57:33;7.00;;;1.70;;
54871;SDS011;43914;57.680;11.982;2023-07-13T07:59:59;9.20;;;1.60;;
54871;SDS011;43914;57.680;11.982;2023-07-13T08:02:25;9.50;;;2.10;;
54871;SDS011;43914;57.680;11.982;2023-07-13T08:04:50;7.00;;;1.80;;
54871;SDS011;43914;57.680;11.982;2023-07-13T08:07:16;11.50;;;2.10;;
54871;SDS011;43914;57.680;11.982;2023-07-13T08:09:42;8.30;;;2.00;;
54871;SDS011;43914;57.680;11.982;2023-07-13T08:12:08;8.50;;;2.80;;
54871;SDS011;43914;57.680;11.982;2023-07-13T08:14:33;13.30;;;2.30;;
54871;SDS011;43914;57.680;11.982;2023-07-13T08:16:59;12.80;;;2.30;;
54871;SDS011;43914;57.680;11.982;2023-07-13T08:19:24;11.20;;;2.20;;
54871;SDS011;43914;57.680;11.982;2023-07-13T08:21:50;8.80;;;2.10;;
54871;SDS011;43914;57.680;11.982;2023-07-13T08:24:15;9.40;;;1.90;;
54871;SDS011;43914;57.680;11.982;2023-07-13T08:26:43;7.90;;;1.60;;
54871;SDS011;43914;57.680;11.982;2023-07-13T08:29:10;11.10;;;1.80;;
54871;SDS011;43914;57.680;11.982;2023-07-13T08:31:36;11.90;;;2.00;;
54871;SDS011;43914;57.680;11.982;2023-07-13T08:34:01;9.40;;;1.80;;
54871;SDS011;43914;57.680;11.982;2023-07-13T08:36:27;12.00;;;1.80;;
54871;SDS011;43914;57.680;11.982;2023-07-13T08:38:54;7.20;;;2.10;;
54871;SDS011;43914;57.680;11.982;2023-07-13T08:41:21;10.50;;;2.00;;
54871;SDS011;43914;57.680;11.982;2023-07-13T08:43:49;8.90;;;2.00;;
54871;SDS011;43914;57.680;11.982;2023-07-13T08:46:21;15.70;;;1.70;;
54871;SDS011;43914;57.680;11.982;2023-07-13T08:54:01;9.40;;;1.80;;
54871;SDS011;43914;57.680;11.982;2023-07-13T08:56:30;11.10;;;1.70;;
54871;SDS011;43914;57.680;11.982;2023-07-13T08:58:59;9.30;;;1.90;;
54871;SDS011;43914;57.680;11.982;2023-07-13T09:01:36;8.50;;;1.90;;
54871;SDS011;43914;57.680;11.982;2023-07-13T09:04:23;8.20;;;1.90;;
54871;SDS011;43914;57.680;11.982;2023-07-13T09:18:04;9.20;;;1.80;;
54871;SDS011;43914;57.680;11.982;2023-07-13T09:20:37;7.60;;;1.60;;
54871;SDS011;43914;57.680;11.982;2023-07-13T09:23:10;8.40;;;1.90;;
54871;SDS011;43914;57.680;11.982;2023-07-13T09:25:40;8.70;;;1.80;;
54871;SDS011;43914;57.680;11.982;2023-07-13T09:30:46;7.70;;;1.80;;
54871;SDS011;43914;57.680;11.982;2023-07-13T09:33:23;7.60;;;1.60;;
54871;SDS011;43914;57.680;11.982;2023-07-13T09:35:50;7.90;;;1.70;;
54871;SDS011;43914;57.680;11.982;2023-07-13T09:38:16;10.10;;;1.90;;
54871;SDS011;43914;57.680;11.982;2023-07-13T09:43:27;8.20;;;1.80;;
54871;SDS011;43914;57.680;11.982;2023-07-13T09:45:54;7.70;;;1.50;;
54871;SDS011;43914;57.680;11.982;2023-07-13T09:48:20;8.40;;;1.70;;
54871;SDS011;43914;57.680;11.982;2023-07-13T09:50:46;8.20;;;1.70;;
54871;SDS011;43914;57.680;11.982;2023-07-13T09:53:15;8.40;;;1.60;;
54871;SDS011;43914;57.680;11.982;2023-07-13T09:55:43;7.80;;;1.70;;
54871;SDS011;43914;57.680;11.982;2023-07-13T10:00:42;13.20;;;2.40;;
54871;SDS011;43914;57.680;11.982;2023-07-13T10:03:19;9.30;;;1.70;;
54871;SDS011;43914;57.680;11.982;2023-07-13T10:05:50;8.30;;;1.80;;
54871;SDS011;43914;57.680;11.982;2023-07-13T10:08:35;8.90;;;1.70;;
54871;SDS011;43914;57.680;11.982;2023-07-13T10:11:12;5.20;;;1.20;;
54871;SDS011;43914;57.680;11.982;2023-07-13T10:13:44;10.70;;;1.90;;
54871;SDS011;43914;57.680;11.982;2023-07-13T10:16:14;6.80;;;1.70;;
54871;SDS011;43914;57.680;11.982;2023-07-13T10:18:48;9.00;;;1.80;;
54871;SDS011;43914;57.680;11.982;2023-07-13T10:21:19;10.30;;;2.00;;
54871;SDS011;43914;57.680;11.982;2023-07-13T10:23:48;11.20;;;2.00;;
54871;SDS011;43914;57.680;11.982;2023-07-13T10:26:21;11.40;;;3.40;;
54871;SDS011;43914;57.680;11.982;2023-07-13T10:28:51;9.40;;;2.20;;
54871;SDS011;43914;57.680;11.982;2023-07-13T10:31:20;8.60;;;1.80;;
54871;SDS011;43914;57.680;11.982;2023-07-13T10:33:47;7.90;;;1.70;;
54871;SDS011;43914;57.680;11.982;2023-07-13T10:36:34;9.70;;;2.00;;
54871;SDS011;43914;57.680;11.982;2023-07-13T10:39:05;10.00;;;2.10;;
54871;SDS011;43914;57.680;11.982;2023-07-13T10:41:33;9.40;;;2.40;;
54871;SDS011;43914;57.680;11.982;2023-07-13T10:44:04;7.40;;;1.70;;
54871;SDS011;43914;57.680;11.982;2023-07-13T10:46:35;9.00;;;1.80;;
54871;SDS011;43914;57.680;11.982;2023-07-13T10:49:02;8.80;;;1.90;;
54871;SDS011;43914;57.680;11.982;2023-07-13T10:51:32;6.80;;;1.60;;
54871;SDS011;43914;57.680;11.982;2023-07-13T10:54:18;8.30;;;1.80;;
54871;SDS011;43914;57.680;11.982;2023-07-13T11:04:53;8.20;;;1.70;;
54871;SDS011;43914;57.680;11.982;2023-07-13T11:07:19;8.30;;;1.70;;
54871;SDS011;43914;57.680;11.982;2023-07-13T11:09:54;6.90;;;1.30;;
54871;SDS011;43914;57.680;11.982;2023-07-13T11:22:45;6.30;;;1.50;;
54871;SDS011;43914;57.680;11.982;2023-07-13T11:27:46;7.70;;;1.40;;
54871;SDS011;43914;57.680;11.982;2023-07-13T11:32:51;6.20;;;1.40;;
54871;SDS011;43914;57.680;11.982;2023-07-13T11:35:41;7.50;;;1.30;;
54871;SDS011;43914;57.680;11.982;2023-07-13T11:41:10;10.70;;;1.80;;
54871;SDS011;43914;57.680;11.982;2023-07-13T11:43:45;5.00;;;1.20;;
54871;SDS011;43914;57.680;11.982;2023-07-13T11:46:25;6.00;;;1.30;;
54871;SDS011;43914;57.680;11.982;2023-07-13T11:48:52;6.20;;;1.40;;
54871;SDS011;43914;57.680;11.982;2023-07-13T11:51:20;8.80;;;1.40;;
54871;SDS011;43914;57.680;11.982;2023-07-13T11:56:55;4.10;;;1.00;;
54871;SDS011;43914;57.680;11.982;2023-07-13T11:59:25;7.60;;;1.40;;
54871;SDS011;43914;57.680;11.982;2023-07-13T12:01:52;7.90;;;1.30;;
54871;SDS011;43914;57.680;11.982;2023-07-13T12:04:20;10.70;;;1.60;;
54871;SDS011;43914;57.680;11.982;2023-07-13T12:07:06;10.00;;;1.60;;
54871;SDS011;43914;57.680;11.982;2023-07-13T12:09:39;6.30;;;1.30;;
54871;SDS011;43914;57.680;11.982;2023-07-13T12:12:13;7.30;;;1.30;;
54871;SDS011;43914;57.680;11.982;2023-07-13T12:14:43;8.10;;;1.70;;
54871;SDS011;43914;57.680;11.982;2023-07-13T12:17:22;7.00;;;1.60;;
54871;SDS011;43914;57.680;11.982;2023-07-13T12:19:49;7.10;;;1.30;;
54871;SDS011;43914;57.680;11.982;2023-07-13T12:22:17;8.70;;;1.40;;
54871;SDS011;43914;57.680;11.982;2023-07-13T12:24:44;6.60;;;1.40;;
54871;SDS011;43914;57.680;11.982;2023-07-13T12:29:57;4.90;;;1.20;;
54871;SDS011;43914;57.680;11.982;2023-07-13T12:32:25;4.60;;;1.10;;
54871;SDS011;43914;57.680;11.982;2023-07-13T12:34:55;7.00;;;1.30;;
54871;SDS011;43914;57.680;11.982;2023-07-13T12:37:22;5.20;;;1.00;;
54871;SDS011;43914;57.680;11.982;2023-07-13T12:39:49;5.80;;;0.90;;
54871;SDS011;43914;57.680;11.982;2023-07-13T12:42:25;4.10;;;0.70;;
54871;SDS011;43914;57.680;11.982;2023-07-13T12:45:05;4.00;;;0.70;;
54871;SDS011;43914;57.680;11.982;2023-07-13T12:47:43;2.10;;;0.60;;
54871;SDS011;43914;57.680;11.982;2023-07-13T12:50:17;6.20;;;1.00;;
54871;SDS011;43914;57.680;11.982;2023-07-13T12:52:50;4.30;;;0.90;;
54871;SDS011;43914;57.680;11.982;2023-07-13T12:55:18;3.40;;;0.80;;
54871;SDS011;43914;57.680;11.982;2023-07-13T13:02:56;4.10;;;0.90;;
54871;SDS011;43914;57.680;11.982;2023-07-13T13:05:25;3.00;;;0.80;;
54871;SDS011;43914;57.680;11.982;2023-07-13T13:07:52;4.00;;;1.10;;
54871;SDS011;43914;57.680;11.982;2023-07-13T13:10:17;3.70;;;0.90;;
54871;SDS011;43914;57.680;11.982;2023-07-13T13:12:43;4.80;;;0.90;;
54871;SDS011;43914;57.680;11.982;2023-07-13T13:15:12;3.60;;;1.10;;
54871;SDS011;43914;57.680;11.982;2023-07-13T13:17:38;5.20;;;1.10;;
54871;SDS011;43914;57.680;11.982;2023-07-13T13:20:15;4.40;;;1.10;;
54871;SDS011;43914;57.680;11.982;2023-07-13T13:22:43;5.30;;;1.10;;
54871;SDS011;43914;57.680;11.982;2023-07-13T13:25:12;7.70;;;1.00;;
54871;SDS011;43914;57.680;11.982;2023-07-13T13:27:40;4.60;;;1.00;;
54871;SDS011;43914;57.680;11.982;2023-07-13T13:30:13;6.20;;;1.20;;
54871;SDS011;43914;57.680;11.982;2023-07-13T13:32:42;8.80;;;1.10;;
54871;SDS011;43914;57.680;11.982;2023-07-13T13:35:19;7.50;;;1.10;;
54871;SDS011;43914;57.680;11.982;2023-07-13T13:37:46;6.00;;;1.10;;
54871;SDS011;43914;57.680;11.982;2023-07-13T13:40:16;5.70;;;1.10;;
54871;SDS011;43914;57.680;11.982;2023-07-13T13:42:43;4.10;;;0.90;;
54871;SDS011;43914;57.680;11.982;2023-07-13T13:45:09;4.90;;;1.00;;
54871;SDS011;43914;57.680;11.982;2023-07-13T13:47:37;4.70;;;1.00;;
54871;SDS011;43914;57.680;11.982;2023-07-13T13:50:15;6.30;;;1.10;;
54871;SDS011;43914;57.680;11.982;2023-07-13T13:52:42;4.90;;;1.10;;
54871;SDS011;43914;57.680;11.982;2023-07-13T13:55:16;4.00;;;1.00;;
54871;SDS011;43914;57.680;11.982;2023-07-13T13:57:47;5.40;;;1.00;;
54871;SDS011;43914;57.680;11.982;2023-07-13T14:00:14;3.40;;;0.90;;
54871;SDS011;43914;57.680;11.982;2023-07-13T14:02:43;5.30;;;1.30;;
54871;SDS011;43914;57.680;11.982;2023-07-13T14:05:25;6.40;;;1.10;;
54871;SDS011;43914;57.680;11.982;2023-07-13T14:07:52;4.20;;;1.00;;
54871;SDS011;43914;57.680;11.982;2023-07-13T14:10:20;6.20;;;1.10;;
54871;SDS011;43914;57.680;11.982;2023-07-13T14:12:47;5.40;;;0.90;;
54871;SDS011;43914;57.680;11.982;2023-07-13T14:15:21;2.80;;;0.90;;
54871;SDS011;43914;57.680;11.982;2023-07-13T14:17:47;4.00;;;0.90;;
54871;SDS011;43914;57.680;11.982;2023-07-13T14:20:16;7.10;;;1.20;;
54871;SDS011;43914;57.680;11.982;2023-07-13T14:22:42;4.90;;;1.00;;
54871;SDS011;43914;57.680;11.982;2023-07-13T14:25:14;6.10;;;1.00;;
54871;SDS011;43914;57.680;11.982;2023-07-13T14:27:42;5.30;;;1.00;;
54871;SDS011;43914;57.680;11.982;2023-07-13T14:32:37;4.00;;;0.90;;
54871;SDS011;43914;57.680;11.982;2023-07-13T14:35:03;5.10;;;0.90;;
54871;SDS011;43914;57.680;11.982;2023-07-13T14:37:29;5.10;;;1.00;;
54871;SDS011;43914;57.680;11.982;2023-07-13T14:39:54;3.70;;;1.00;;
54871;SDS011;43914;57.680;11.982;2023-07-13T14:42:20;4.60;;;1.10;;
54871;SDS011;43914;57.680;11.982;2023-07-13T14:44:45;4.00;;;1.00;;
54871;SDS011;43914;57.680;11.982;2023-07-13T14:47:11;3.70;;;0.90;;
54871;SDS011;43914;57.680;11.982;2023-07-13T14:49:38;3.50;;;0.80;;
54871;SDS011;43914;57.680;11.982;2023-07-13T14:52:09;6.50;;;1.10;;
54871;SDS011;43914;57.680;11.982;2023-07-13T14:54:36;6.20;;;1.20;;
54871;SDS011;43914;57.680;11.982;2023-07-13T14:57:08;6.90;;;1.10;;
54871;SDS011;43914;57.680;11.982;2023-07-13T14:59:38;2.30;;;0.70;;
54871;SDS011;43914;57.680;11.982;2023-07-13T15:02:10;5.10;;;1.00;;
54871;SDS011;43914;57.680;11.982;2023-07-13T15:04:52;6.20;;;1.40;;
54871;SDS011;43914;57.680;11.982;2023-07-13T15:07:18;4.50;;;1.00;;
54871;SDS011;43914;57.680;11.982;2023-07-13T15:09:46;4.70;;;1.10;;
54871;SDS011;43914;57.680;11.982;2023-07-13T15:12:16;5.90;;;1.20;;
54871;SDS011;43914;57.680;11.982;2023-07-13T15:14:42;3.50;;;1.00;;
54871;SDS011;43914;57.680;11.982;2023-07-13T15:17:21;6.30;;;1.20;;
54871;SDS011;43914;57.680;11.982;2023-07-13T15:19:56;5.50;;;1.10;;
54871;SDS011;43914;57.680;11.982;2023-07-13T15:22:22;4.50;;;1.10;;
54871;SDS011;43914;57.680;11.982;2023-07-13T15:24:48;4.10;;;1.00;;
54871;SDS011;43914;57.680;11.982;2023-07-13T15:27:13;4.60;;;1.10;;
54871;SDS011;43914;57.680;11.982;2023-07-13T15:29:39;6.10;;;1.00;;
54871;SDS011;43914;57.680;11.982;2023-07-13T15:32:17;6.10;;;1.00;;
54871;SDS011;43914;57.680;11.982;2023-07-13T15:34:44;7.30;;;1.30;;
54871;SDS011;43914;57.680;11.982;2023-07-13T15:37:14;5.90;;;1.30;;